createdAt,value
2019-04-16T00:00:59.491Z,9.80
2019-04-16T00:01:59.524Z,10.20
2019-04-16T00:02:59.452Z,9.80
2019-04-16T00:03:59.439Z,10.20
2019-04-16T00:04:59.567Z,9.20
2019-04-16T00:05:59.828Z,9.90
2019-04-16T00:06:59.565Z,9.10
2019-04-16T00:07:59.340Z,9.00
2019-04-16T00:08:59.318Z,9.00
2019-04-16T00:09:59.296Z,9.10
2019-04-16T00:10:59.277Z,9.40
2019-04-16T00:11:59.252Z,9.50
2019-04-16T00:12:59.231Z,9.90
2019-04-16T00:14:02.999Z,9.60
2019-04-16T00:14:59.185Z,9.70
2019-04-16T00:15:59.166Z,10.10
2019-04-16T00:16:59.141Z,9.60
2019-04-16T00:17:59.122Z,9.60
2019-04-16T00:19:04.421Z,9.60
2019-04-16T00:19:59.081Z,9.80
2019-04-16T00:20:59.055Z,8.90
2019-04-16T00:21:59.047Z,9.40
2019-04-16T00:22:59.010Z,9.70
2019-04-16T00:23:58.990Z,9.90
2019-04-16T00:24:58.965Z,9.90
2019-04-16T00:25:58.948Z,10.30
2019-04-16T00:27:00.007Z,9.60
2019-04-16T00:27:59.979Z,9.80
2019-04-16T00:29:01.659Z,10.20
2019-04-16T00:30:04.139Z,9.60
2019-04-16T00:30:58.847Z,10.00
2019-04-16T00:31:58.811Z,9.70
2019-04-16T00:32:58.788Z,10.10
2019-04-16T00:33:58.766Z,9.90
2019-04-16T00:34:58.896Z,9.60
2019-04-16T00:35:58.719Z,9.90
2019-04-16T00:36:58.696Z,9.40
2019-04-16T00:37:58.678Z,9.80
2019-04-16T00:38:58.665Z,9.20
2019-04-16T00:39:58.637Z,10.00
2019-04-16T00:41:01.360Z,9.30
2019-04-16T00:41:58.591Z,10.10
2019-04-16T00:42:58.571Z,9.00
2019-04-16T00:43:58.551Z,9.70
2019-04-16T00:44:58.528Z,9.80
2019-04-16T00:45:58.501Z,9.80
2019-04-16T00:46:58.635Z,9.80
2019-04-16T00:47:58.471Z,10.10
2019-04-16T00:48:58.438Z,9.80
2019-04-16T00:49:59.551Z,9.90
2019-04-16T00:50:58.387Z,10.10
2019-04-16T00:51:58.369Z,9.80
2019-04-16T00:52:58.348Z,9.60
2019-04-16T00:53:58.325Z,9.70
2019-04-16T00:54:58.305Z,9.80
2019-04-16T00:55:58.279Z,9.60
2019-04-16T00:56:58.259Z,9.80
2019-04-16T00:57:58.241Z,9.70
2019-04-16T00:58:58.215Z,9.50
2019-04-16T01:00:58.173Z,9.70
2019-04-16T01:01:58.223Z,9.60
2019-04-16T01:02:58.406Z,9.50
2019-04-16T01:03:58.356Z,9.50
2019-04-16T01:04:58.270Z,9.30
2019-04-16T01:05:58.059Z,9.60
2019-04-16T01:06:58.039Z,10.30
2019-04-16T01:07:58.016Z,9.70
2019-04-16T01:08:57.997Z,9.90
2019-04-16T01:09:57.976Z,9.40
2019-04-16T01:10:57.956Z,9.70
2019-04-16T01:11:57.927Z,9.70
2019-04-16T01:12:57.905Z,9.30
2019-04-16T01:13:57.879Z,10.10
2019-04-16T01:15:00.678Z,10.20
2019-04-16T01:16:02.462Z,9.50
2019-04-16T01:16:57.818Z,9.60
2019-04-16T01:17:57.791Z,9.80
2019-04-16T01:18:57.773Z,9.80
2019-04-16T01:19:57.761Z,10.50
2019-04-16T01:20:57.722Z,10.20
2019-04-16T01:21:57.704Z,10.80
2019-04-16T01:22:57.683Z,10.00
2019-04-16T01:23:57.658Z,9.60
2019-04-16T01:24:57.640Z,9.70
2019-04-16T01:25:57.615Z,9.70
2019-04-16T01:26:58.387Z,9.50
2019-04-16T01:28:00.966Z,9.70
2019-04-16T01:28:57.564Z,10.00
2019-04-16T01:29:57.602Z,10.10
2019-04-16T01:30:57.650Z,9.50
2019-04-16T01:31:57.652Z,10.30
2019-04-16T01:32:57.462Z,9.80
2019-04-16T01:33:57.439Z,9.60
2019-04-16T01:34:57.568Z,10.00
2019-04-16T01:35:57.546Z,9.70
2019-04-16T01:36:57.368Z,11.10
2019-04-16T01:37:57.714Z,10.50
2019-04-16T01:39:11.010Z,9.80
2019-04-16T01:39:57.304Z,10.10
2019-04-16T01:40:57.280Z,10.20
2019-04-16T01:41:57.267Z,10.90
2019-04-16T01:42:57.231Z,10.30
2019-04-16T01:43:57.888Z,10.70
2019-04-16T01:44:59.785Z,10.80
2019-04-16T01:46:00.758Z,10.80
2019-04-16T01:46:57.146Z,11.40
2019-04-16T01:47:57.134Z,11.60
2019-04-16T01:48:57.100Z,11.50
2019-04-16T01:49:57.081Z,11.60
2019-04-16T01:50:57.060Z,10.80
2019-04-16T01:51:57.036Z,10.90
2019-04-16T01:52:57.012Z,10.40
2019-04-16T01:53:56.995Z,11.20
2019-04-16T01:54:56.972Z,11.10
2019-04-16T01:55:57.702Z,10.60
2019-04-16T01:56:59.515Z,10.50
2019-04-16T01:57:59.645Z,11.20
2019-04-16T01:58:56.879Z,11.40
2019-04-16T01:59:56.858Z,11.00
2019-04-16T02:00:56.832Z,10.80
2019-04-16T02:01:56.808Z,10.90
2019-04-16T02:02:56.788Z,11.30
2019-04-16T02:03:56.766Z,10.70
2019-04-16T02:04:56.746Z,11.80
2019-04-16T02:05:56.724Z,11.20
2019-04-16T02:06:57.196Z,11.40
2019-04-16T02:07:59.279Z,11.60
2019-04-16T02:09:01.866Z,11.40
2019-04-16T02:09:56.633Z,11.00
2019-04-16T02:10:56.612Z,11.90
2019-04-16T02:11:56.586Z,11.40
2019-04-16T02:12:56.565Z,11.00
2019-04-16T02:13:56.546Z,11.50
2019-04-16T02:14:56.516Z,11.50
2019-04-16T02:15:56.501Z,12.00
2019-04-16T02:16:56.732Z,11.20
2019-04-16T02:17:58.810Z,11.90
2019-04-16T02:19:00.766Z,11.50
2019-04-16T02:19:56.410Z,10.90
2019-04-16T02:20:56.386Z,11.40
2019-04-16T02:21:56.363Z,11.40
2019-04-16T02:22:56.342Z,11.80
2019-04-16T02:23:56.320Z,11.00
2019-04-16T02:24:56.299Z,11.20
2019-04-16T02:25:56.272Z,11.60
2019-04-16T02:26:56.252Z,11.90
2019-04-16T02:27:56.998Z,11.40
2019-04-16T02:28:56.542Z,11.30
2019-04-16T02:29:58.577Z,11.20
2019-04-16T02:30:56.180Z,11.70
2019-04-16T02:31:56.141Z,11.10
2019-04-16T02:32:56.119Z,11.80
2019-04-16T02:33:56.101Z,10.80
2019-04-16T02:34:56.078Z,11.40
2019-04-16T02:35:56.053Z,11.70
2019-04-16T02:37:00.283Z,11.60
2019-04-16T02:37:56.007Z,11.40
2019-04-16T02:38:55.980Z,10.80
2019-04-16T02:39:55.963Z,11.70
2019-04-16T02:40:55.965Z,11.10
2019-04-16T02:41:58.071Z,10.70
2019-04-16T02:42:55.896Z,11.20
2019-04-16T02:43:55.875Z,11.20
2019-04-16T02:44:55.849Z,11.30
2019-04-16T02:45:58.059Z,11.10
2019-04-16T02:46:55.809Z,11.80
2019-04-16T02:47:55.783Z,11.70
2019-04-16T02:48:55.760Z,12.30
2019-04-16T02:49:56.744Z,12.10
2019-04-16T02:50:55.711Z,11.30
2019-04-16T02:51:55.705Z,12.40
2019-04-16T02:52:55.670Z,12.00
2019-04-16T02:53:58.710Z,11.80
2019-04-16T02:54:55.631Z,11.00
2019-04-16T02:55:55.605Z,11.70
2019-04-16T02:56:55.580Z,11.70
2019-04-16T02:57:59.507Z,11.40
2019-04-16T02:58:55.547Z,12.20
2019-04-16T02:59:55.509Z,11.80
2019-04-16T03:00:55.493Z,12.40
2019-04-16T03:01:55.465Z,12.60
2019-04-16T03:02:55.443Z,11.50
2019-04-16T03:03:56.418Z,11.40
2019-04-16T03:04:58.213Z,11.00
2019-04-16T03:05:55.377Z,12.00
2019-04-16T03:06:55.361Z,11.60
2019-04-16T03:07:55.333Z,11.70
2019-04-16T03:08:55.310Z,11.70
2019-04-16T03:10:01.661Z,11.80
2019-04-16T03:10:55.264Z,12.40
2019-04-16T03:11:55.241Z,12.00
2019-04-16T03:15:38.447Z,11.30
2019-04-16T03:16:38.776Z,12.00
2019-04-16T03:17:39.606Z,11.50
2019-04-16T03:18:41.003Z,12.00
2019-04-16T03:19:39.002Z,11.70
2019-04-16T03:20:38.341Z,11.50
2019-04-16T03:21:38.320Z,11.70
2019-04-16T03:22:38.293Z,11.70
2019-04-16T03:23:38.273Z,11.50
2019-04-16T03:24:40.170Z,11.50
2019-04-16T03:25:38.227Z,11.70
2019-04-16T03:26:38.202Z,12.10
2019-04-16T03:27:38.179Z,12.30
2019-04-16T03:28:38.156Z,12.00
2019-04-16T03:29:38.135Z,12.20
2019-04-16T03:30:42.222Z,11.80
2019-04-16T03:31:38.089Z,12.20
2019-04-16T03:32:38.076Z,12.30
2019-04-16T03:33:38.046Z,11.50
2019-04-16T03:34:38.016Z,11.50
2019-04-16T03:35:37.998Z,11.40
2019-04-16T03:36:37.979Z,12.20
2019-04-16T03:37:37.953Z,12.30
2019-04-16T03:38:41.919Z,12.50
2019-04-16T03:39:37.909Z,12.00
2019-04-16T03:40:37.887Z,12.20
2019-04-16T03:41:37.866Z,12.10
2019-04-16T03:42:37.841Z,11.40
2019-04-16T03:43:37.819Z,11.50
2019-04-16T03:44:37.800Z,11.80
2019-04-16T03:45:40.494Z,12.00
2019-04-16T03:46:40.027Z,11.70
2019-04-16T03:47:37.731Z,11.50
2019-04-16T03:48:37.707Z,11.70
2019-04-16T03:49:37.683Z,12.00
2019-04-16T03:50:37.663Z,11.20
2019-04-16T03:51:37.643Z,11.80
2019-04-16T03:52:40.897Z,12.10
2019-04-16T03:53:37.594Z,11.90
2019-04-16T03:54:37.611Z,12.70
2019-04-16T03:55:37.547Z,12.20
2019-04-16T03:56:37.528Z,12.20
2019-04-16T03:57:37.503Z,12.40
2019-04-16T03:58:38.766Z,12.30
2019-04-16T03:59:40.021Z,12.00
2019-04-16T04:00:37.455Z,12.50
2019-04-16T04:01:37.414Z,12.30
2019-04-16T04:02:37.389Z,12.60
2019-04-16T04:03:37.369Z,12.60
2019-04-16T04:04:37.345Z,12.20
2019-04-16T04:05:37.324Z,11.60
2019-04-16T04:06:39.638Z,12.20
2019-04-16T04:07:37.278Z,11.80
2019-04-16T04:08:37.322Z,11.70
2019-04-16T04:09:37.227Z,12.20
2019-04-16T04:10:37.946Z,11.30
2019-04-16T04:11:40.832Z,12.70
2019-04-16T04:12:37.165Z,11.40
2019-04-16T04:13:37.144Z,11.80
2019-04-16T04:14:37.114Z,11.80
2019-04-16T04:15:37.091Z,12.70
2019-04-16T04:16:37.074Z,12.20
2019-04-16T04:17:38.730Z,12.40
2019-04-16T04:18:37.028Z,12.80
2019-04-16T04:19:37.004Z,12.50
2019-04-16T04:20:36.980Z,12.40
2019-04-16T04:21:36.954Z,12.40
2019-04-16T04:22:36.935Z,12.10
2019-04-16T04:23:36.914Z,12.30
2019-04-16T04:24:36.888Z,13.20
2019-04-16T04:25:37.102Z,13.00
2019-04-16T04:26:40.880Z,13.10
2019-04-16T04:27:36.828Z,13.60
2019-04-16T04:28:36.802Z,12.90
2019-04-16T04:29:36.778Z,13.40
2019-04-16T04:30:36.753Z,13.60
2019-04-16T04:31:36.738Z,12.90
2019-04-16T04:32:36.713Z,13.20
2019-04-16T04:33:40.751Z,13.50
2019-04-16T04:34:36.665Z,13.90
2019-04-16T04:35:36.643Z,13.50
2019-04-16T04:36:36.621Z,13.20
2019-04-16T04:37:36.601Z,13.20
2019-04-16T04:38:37.576Z,13.20
2019-04-16T04:39:36.553Z,13.60
2019-04-16T04:40:44.367Z,13.90
2019-04-16T04:41:36.510Z,13.80
2019-04-16T04:42:36.485Z,14.00
2019-04-16T04:43:36.460Z,13.50
2019-04-16T04:44:37.140Z,13.70
2019-04-16T04:45:37.650Z,13.40
2019-04-16T04:46:36.390Z,13.80
2019-04-16T04:47:36.368Z,13.90
2019-04-16T04:48:36.346Z,14.20
2019-04-16T04:49:36.318Z,13.70
2019-04-16T04:50:36.298Z,13.60
2019-04-16T04:51:39.795Z,14.00
2019-04-16T04:52:36.257Z,13.50
2019-04-16T04:53:36.233Z,13.80
2019-04-16T04:54:36.222Z,14.20
2019-04-16T04:55:36.184Z,13.90
2019-04-16T04:56:36.168Z,14.80
2019-04-16T04:57:36.137Z,13.90
2019-04-16T04:58:36.122Z,14.30
2019-04-16T04:59:36.743Z,14.30
2019-04-16T05:00:37.429Z,14.20
2019-04-16T05:01:36.055Z,14.60
2019-04-16T05:02:36.027Z,13.80
2019-04-16T05:03:36.006Z,14.20
2019-04-16T05:04:35.993Z,13.90
2019-04-16T05:05:35.957Z,13.70
2019-04-16T05:06:35.940Z,14.20
2019-04-16T05:07:35.915Z,14.00
2019-04-16T05:08:35.894Z,14.20
2019-04-16T05:09:36.761Z,13.90
2019-04-16T05:10:39.877Z,14.70
2019-04-16T05:11:35.823Z,14.40
2019-04-16T05:12:35.808Z,13.90
2019-04-16T05:13:35.780Z,14.20
2019-04-16T05:14:35.755Z,14.10
2019-04-16T05:15:35.739Z,14.10
2019-04-16T05:16:35.711Z,14.20
2019-04-16T05:17:38.483Z,14.70
2019-04-16T05:18:41.392Z,14.00
2019-04-16T05:19:35.644Z,14.00
2019-04-16T05:20:35.625Z,13.80
2019-04-16T05:21:35.599Z,14.40
2019-04-16T05:22:35.581Z,14.00
2019-04-16T05:23:37.742Z,13.90
2019-04-16T05:25:35.511Z,13.50
2019-04-16T05:26:36.596Z,14.80
2019-04-16T05:27:39.936Z,14.20
2019-04-16T05:28:35.434Z,14.60
2019-04-16T05:29:35.415Z,13.90
2019-04-16T05:30:35.393Z,13.80
2019-04-16T05:31:35.372Z,14.00
2019-04-16T05:32:35.348Z,14.40
2019-04-16T05:33:37.415Z,13.70
2019-04-16T05:34:37.387Z,14.70
2019-04-16T05:35:35.286Z,14.60
2019-04-16T05:36:35.259Z,14.30
2019-04-16T05:37:35.235Z,15.30
2019-04-16T05:38:35.214Z,14.70
2019-04-16T05:39:35.191Z,14.60
2019-04-16T05:40:35.356Z,14.80
2019-04-16T05:41:35.147Z,14.20
2019-04-16T05:42:35.130Z,14.40
2019-04-16T05:43:35.101Z,13.80
2019-04-16T05:44:35.078Z,14.00
2019-04-16T05:45:37.687Z,14.10
2019-04-16T05:46:35.043Z,14.40
2019-04-16T05:47:35.012Z,14.10
2019-04-16T05:48:34.984Z,14.10
2019-04-16T05:49:34.965Z,14.30
2019-04-16T05:50:34.940Z,14.20
2019-04-16T05:51:34.915Z,14.90
2019-04-16T05:52:35.730Z,14.10
2019-04-16T05:53:37.325Z,13.50
2019-04-16T05:54:34.854Z,13.20
2019-04-16T05:55:34.833Z,14.20
2019-04-16T05:56:34.810Z,14.20
2019-04-16T05:57:34.786Z,14.00
2019-04-16T05:58:34.765Z,13.80
2019-04-16T05:59:34.745Z,13.00
2019-04-16T06:00:34.748Z,12.90
2019-04-16T06:01:34.697Z,13.50
2019-04-16T06:02:34.678Z,13.40
2019-04-16T06:03:34.655Z,13.30
2019-04-16T06:04:35.642Z,12.80
2019-04-16T06:05:34.610Z,12.80
2019-04-16T06:06:34.586Z,13.70
2019-04-16T06:07:37.798Z,13.30
2019-04-16T06:08:34.539Z,14.00
2019-04-16T06:09:34.518Z,13.60
2019-04-16T06:10:34.497Z,13.10
2019-04-16T06:11:36.484Z,13.30
2019-04-16T06:12:34.549Z,12.90
2019-04-16T06:13:34.434Z,12.70
2019-04-16T06:14:34.406Z,13.60
2019-04-16T06:15:35.945Z,13.90
2019-04-16T06:16:34.364Z,14.00
2019-04-16T06:17:34.341Z,14.00
2019-04-16T06:18:38.049Z,13.50
2019-04-16T06:19:34.294Z,13.90
2019-04-16T06:20:34.278Z,13.30
2019-04-16T06:21:34.251Z,13.50
2019-04-16T06:22:34.230Z,13.30
2019-04-16T06:23:34.224Z,13.30
2019-04-16T06:24:35.810Z,13.70
2019-04-16T06:25:34.167Z,13.90
2019-04-16T06:26:34.153Z,13.40
2019-04-16T06:27:34.117Z,14.50
2019-04-16T06:28:34.099Z,13.40
2019-04-16T06:29:34.073Z,14.00
2019-04-16T06:30:34.163Z,14.40
2019-04-16T06:31:36.279Z,14.50
2019-04-16T06:32:34.013Z,14.70
2019-04-16T06:33:33.986Z,14.70
2019-04-16T06:34:33.966Z,14.10
2019-04-16T06:35:43.235Z,14.60
2019-04-16T06:36:33.925Z,14.20
2019-04-16T06:37:33.900Z,14.70
2019-04-16T06:38:33.878Z,14.00
2019-04-16T06:39:33.856Z,14.60
2019-04-16T06:40:33.840Z,13.50
2019-04-16T06:41:41.584Z,13.70
2019-04-16T06:42:33.789Z,13.30
2019-04-16T06:43:33.783Z,14.00
2019-04-16T06:44:35.062Z,14.50
2019-04-16T06:45:37.003Z,13.40
2019-04-16T06:46:33.707Z,15.00
2019-04-16T06:47:33.688Z,14.80
2019-04-16T06:48:33.664Z,14.40
2019-04-16T06:49:34.617Z,14.70
2019-04-16T06:50:39.654Z,14.40
2019-04-16T06:51:33.606Z,14.40
2019-04-16T06:52:33.581Z,15.00
2019-04-16T06:53:33.565Z,14.40
2019-04-16T06:54:33.540Z,14.80
2019-04-16T06:55:36.017Z,14.70
2019-04-16T06:56:33.500Z,15.10
2019-04-16T06:57:33.491Z,15.10
2019-04-16T06:58:49.852Z,15.00
2019-04-16T06:59:33.449Z,14.60
2019-04-16T07:01:25.963Z,15.10
2019-04-16T07:02:25.944Z,14.90
2019-04-16T07:03:27.382Z,14.50
2019-04-16T07:04:29.558Z,14.10
2019-04-16T07:05:25.890Z,14.70
2019-04-16T07:06:25.876Z,14.90
2019-04-16T07:07:38.552Z,14.60
2019-04-16T07:08:37.147Z,15.00
2019-04-16T07:09:26.506Z,14.60
2019-04-16T07:10:29.569Z,14.40
2019-04-16T07:11:25.794Z,14.80
2019-04-16T07:12:25.850Z,13.80
2019-04-16T07:13:25.751Z,13.80
2019-04-16T07:14:25.934Z,13.30
2019-04-16T07:15:28.582Z,13.10
2019-04-16T07:16:28.885Z,14.10
2019-04-16T07:17:26.095Z,13.80
2019-04-16T07:18:25.674Z,13.80
2019-04-16T07:19:25.657Z,14.80
2019-04-16T07:20:25.643Z,13.70
2019-04-16T07:21:25.627Z,13.90
2019-04-16T07:22:25.609Z,13.40
2019-04-16T07:23:26.019Z,13.50
2019-04-16T07:24:30.131Z,14.70
2019-04-16T07:25:27.850Z,13.80
2019-04-16T07:26:25.583Z,13.90
2019-04-16T07:27:25.828Z,13.70
2019-04-16T07:28:26.784Z,13.50
2019-04-16T07:29:25.682Z,13.70
2019-04-16T07:30:25.580Z,13.90
2019-04-16T07:31:33.280Z,13.50
2019-04-16T07:32:25.590Z,13.80
2019-04-16T07:33:25.460Z,13.70
2019-04-16T07:34:25.449Z,14.10
2019-04-16T07:35:27.136Z,13.30
2019-04-16T07:36:27.238Z,13.40
2019-04-16T07:37:25.415Z,13.90
2019-04-16T07:38:25.401Z,13.50
2019-04-16T07:39:29.366Z,13.60
2019-04-16T07:40:25.376Z,13.60
2019-04-16T07:41:25.362Z,13.40
2019-04-16T07:42:26.466Z,13.70
2019-04-16T07:43:25.340Z,13.50
2019-04-16T07:44:25.331Z,13.70
2019-04-16T07:45:25.319Z,13.30
2019-04-16T07:46:25.306Z,13.70
2019-04-16T07:47:25.293Z,14.10
2019-04-16T07:48:25.287Z,13.00
2019-04-16T07:49:26.518Z,13.40
2019-04-16T07:50:25.265Z,13.30
2019-04-16T07:51:25.253Z,13.50
2019-04-16T07:52:25.245Z,13.40
2019-04-16T07:53:25.235Z,13.60
2019-04-16T07:54:25.224Z,13.60
2019-04-16T07:55:26.750Z,13.50
2019-04-16T07:56:25.200Z,13.90
2019-04-16T07:57:25.193Z,12.70
2019-04-16T07:58:25.179Z,13.70
2019-04-16T07:59:25.178Z,13.20
2019-04-16T08:00:25.163Z,12.90
2019-04-16T08:01:25.150Z,13.80
2019-04-16T08:02:25.134Z,15.60
2019-04-16T08:03:26.904Z,14.10
2019-04-16T08:04:29.058Z,12.60
2019-04-16T08:05:27.816Z,12.80
2019-04-16T08:06:25.092Z,13.30
2019-04-16T08:07:25.082Z,12.90
2019-04-16T08:08:25.502Z,12.60
2019-04-16T08:09:28.935Z,13.30
2019-04-16T08:10:25.050Z,12.90
2019-04-16T08:11:25.036Z,13.50
2019-04-16T08:12:30.659Z,12.50
2019-04-16T08:13:25.019Z,12.50
2019-04-16T08:14:25.004Z,12.80
2019-04-16T08:15:24.990Z,12.90
2019-04-16T08:16:24.981Z,12.50
2019-04-16T08:17:24.970Z,12.30
2019-04-16T08:18:24.962Z,13.10
2019-04-16T08:19:36.097Z,12.60
2019-04-16T08:20:24.943Z,12.50
2019-04-16T08:21:24.927Z,12.20
2019-04-16T08:22:24.943Z,12.40
2019-04-16T08:23:24.908Z,11.80
2019-04-16T08:24:25.544Z,12.00
2019-04-16T08:25:24.889Z,11.50
2019-04-16T08:26:24.880Z,12.60
2019-04-16T08:27:24.882Z,12.00
2019-04-16T08:29:12.403Z,11.90
2019-04-16T08:30:12.390Z,12.00
2019-04-16T08:31:13.130Z,12.20
2019-04-16T08:32:12.901Z,12.10
2019-04-16T08:33:12.356Z,11.50
2019-04-16T08:34:12.349Z,11.80
2019-04-16T08:35:12.335Z,11.50
2019-04-16T08:36:12.325Z,11.70
2019-04-16T08:37:12.384Z,11.30
2019-04-16T08:38:12.311Z,11.40
2019-04-16T08:39:12.309Z,11.40
2019-04-16T08:40:13.161Z,11.30
2019-04-16T08:41:13.206Z,11.60
2019-04-16T08:42:12.289Z,11.30
2019-04-16T08:43:12.270Z,12.00
2019-04-16T08:44:12.250Z,12.20
2019-04-16T08:45:12.239Z,11.70
2019-04-16T08:46:12.232Z,10.80
2019-04-16T08:47:12.979Z,10.70
2019-04-16T08:48:17.000Z,11.50
2019-04-16T08:49:14.852Z,11.70
2019-04-16T08:50:12.622Z,11.20
2019-04-16T08:51:12.176Z,11.80
2019-04-16T08:52:12.182Z,11.80
2019-04-16T08:53:14.277Z,12.10
2019-04-16T08:54:12.184Z,12.10
2019-04-16T08:55:12.128Z,12.00
2019-04-16T08:56:12.179Z,11.30
2019-04-16T08:57:12.116Z,12.10
2019-04-16T08:58:12.852Z,11.30
2019-04-16T08:59:12.090Z,12.10
2019-04-16T09:00:15.140Z,12.20
2019-04-16T09:01:12.065Z,11.50
2019-04-16T09:02:12.113Z,11.10
2019-04-16T09:03:15.235Z,10.50
2019-04-16T09:04:12.034Z,10.60
2019-04-16T09:05:12.015Z,11.20
2019-04-16T09:06:13.481Z,10.90
2019-04-16T09:07:13.408Z,11.50
2019-04-16T09:08:13.766Z,11.40
2019-04-16T09:09:15.549Z,10.90
2019-04-16T09:10:18.084Z,10.70
2019-04-16T09:11:22.636Z,11.20
2019-04-16T09:12:11.931Z,10.80
2019-04-16T09:13:12.011Z,10.70
2019-04-16T09:14:11.913Z,11.60
2019-04-16T09:15:11.904Z,11.20
2019-04-16T09:16:11.952Z,10.60
2019-04-16T09:17:11.877Z,10.90
2019-04-16T09:18:11.882Z,11.30
2019-04-16T09:19:11.851Z,11.30
2019-04-16T09:20:11.842Z,11.90
2019-04-16T09:21:11.834Z,11.90
2019-04-16T09:22:15.472Z,11.60
2019-04-16T09:23:11.807Z,11.10
2019-04-16T09:24:11.797Z,11.50
2019-04-16T09:25:13.888Z,11.30
2019-04-16T09:26:15.057Z,11.80
2019-04-16T09:27:13.309Z,11.30
2019-04-16T09:28:24.557Z,11.30
2019-04-16T09:29:11.740Z,11.70
2019-04-16T09:30:16.920Z,11.50
2019-04-16T09:31:11.707Z,11.80
2019-04-16T09:32:11.700Z,11.70
2019-04-16T09:33:11.693Z,11.40
2019-04-16T09:34:11.712Z,11.60
2019-04-16T09:35:18.544Z,11.70
2019-04-16T09:36:11.645Z,11.00
2019-04-16T09:37:11.633Z,11.50
2019-04-16T09:38:13.183Z,11.60
2019-04-16T09:39:11.606Z,11.40
2019-04-16T09:40:17.797Z,11.50
2019-04-16T09:41:11.580Z,12.10
2019-04-16T09:42:11.571Z,12.30
2019-04-16T09:43:17.663Z,11.70
2019-04-16T09:44:11.545Z,11.40
2019-04-16T09:45:11.532Z,11.80
2019-04-16T09:46:20.612Z,12.10
2019-04-16T09:47:11.506Z,12.30
2019-04-16T09:48:11.496Z,11.80
2019-04-16T09:49:11.482Z,11.70
2019-04-16T09:50:11.664Z,12.50
2019-04-16T09:51:11.460Z,12.00
2019-04-16T09:52:11.445Z,12.10
2019-04-16T09:53:11.434Z,11.70
2019-04-16T09:54:13.584Z,12.20
2019-04-16T09:55:11.419Z,12.00
2019-04-16T09:56:11.403Z,11.80
2019-04-16T09:57:11.387Z,11.00
2019-04-16T09:58:11.387Z,11.60
2019-04-16T09:59:15.741Z,12.50
2019-04-16T10:00:11.358Z,11.00
2019-04-16T10:01:11.338Z,12.00
2019-04-16T10:02:11.326Z,11.80
2019-04-16T10:03:11.323Z,12.50
2019-04-16T10:04:11.304Z,11.70
2019-04-16T10:05:11.299Z,11.10
2019-04-16T10:06:11.289Z,11.60
2019-04-16T10:07:11.275Z,11.80
2019-04-16T10:08:12.628Z,11.90
2019-04-16T10:09:11.270Z,11.30
2019-04-16T10:10:11.247Z,11.60
2019-04-16T10:11:11.232Z,11.90
2019-04-16T10:12:11.239Z,11.40
2019-04-16T10:13:11.212Z,11.10
2019-04-16T10:14:11.211Z,11.10
2019-04-16T10:15:11.203Z,10.90
2019-04-16T10:16:13.547Z,11.10
2019-04-16T10:17:11.232Z,10.50
2019-04-16T10:18:11.185Z,10.40
2019-04-16T10:19:11.174Z,10.60
2019-04-16T10:20:11.172Z,15.10
2019-04-16T10:21:11.156Z,11.80
2019-04-16T10:22:11.139Z,11.40
2019-04-16T10:23:11.123Z,12.30
2019-04-16T10:24:13.125Z,11.40
2019-04-16T10:25:11.110Z,11.50
2019-04-16T10:26:11.106Z,12.00
2019-04-16T10:27:11.095Z,12.30
2019-04-16T10:28:11.092Z,12.60
2019-04-16T10:29:11.093Z,12.70
2019-04-16T10:30:11.080Z,12.80
2019-04-16T10:31:11.075Z,12.10
2019-04-16T10:32:11.077Z,12.10
2019-04-16T10:33:11.081Z,12.30
2019-04-16T10:34:11.079Z,13.00
2019-04-16T10:35:11.054Z,12.30
2019-04-16T10:36:11.066Z,12.50
2019-04-16T10:37:11.037Z,11.80
2019-04-16T10:38:13.534Z,11.80
2019-04-16T10:39:11.033Z,11.70
2019-04-16T10:40:11.018Z,12.00
2019-04-16T10:41:11.057Z,11.90
2019-04-16T10:42:11.038Z,12.30
2019-04-16T10:43:11.029Z,12.40
2019-04-16T10:44:11.005Z,11.90
2019-04-16T10:45:11.029Z,11.70
2019-04-16T10:46:10.991Z,12.70
2019-04-16T10:47:12.563Z,12.10
2019-04-16T10:48:10.995Z,11.80
2019-04-16T10:49:11.055Z,11.80
2019-04-16T10:50:11.002Z,12.40
2019-04-16T10:51:15.233Z,12.00
2019-04-16T10:52:10.974Z,12.30
2019-04-16T10:53:10.995Z,11.80
2019-04-16T10:54:10.972Z,12.40
2019-04-16T10:55:12.158Z,12.90
2019-04-16T10:56:10.957Z,11.80
2019-04-16T10:57:10.965Z,12.30
2019-04-16T10:58:10.985Z,11.90
2019-04-16T10:59:10.952Z,12.10
2019-04-16T11:00:10.946Z,11.70
2019-04-16T11:01:10.947Z,11.90
2019-04-16T11:02:10.984Z,11.20
2019-04-16T11:03:10.942Z,10.80
2019-04-16T11:04:10.953Z,11.30
2019-04-16T11:05:10.952Z,10.80
2019-04-16T11:06:10.961Z,11.70
2019-04-16T11:07:10.936Z,11.30
2019-04-16T11:08:10.932Z,12.20
2019-04-16T11:09:10.935Z,11.80
2019-04-16T11:10:11.945Z,11.70
2019-04-16T11:11:10.924Z,11.40
2019-04-16T11:12:10.922Z,11.30
2019-04-16T11:13:10.922Z,11.50
2019-04-16T11:14:10.934Z,11.50
2019-04-16T11:15:11.727Z,11.80
2019-04-16T11:16:10.928Z,12.40
2019-04-16T11:17:10.933Z,11.80
2019-04-16T11:18:10.934Z,11.90
2019-04-16T11:19:10.923Z,11.70
2019-04-16T11:20:10.961Z,11.90
2019-04-16T11:21:10.916Z,12.40
2019-04-16T11:22:10.910Z,12.40
2019-04-16T11:23:10.942Z,12.40
2019-04-16T11:24:10.898Z,12.40
2019-04-16T11:25:11.028Z,12.60
2019-04-16T11:26:10.895Z,12.80
2019-04-16T11:27:10.884Z,12.00
2019-04-16T11:28:13.758Z,12.30
2019-04-16T11:29:10.897Z,11.90
2019-04-16T11:30:10.908Z,11.80
2019-04-16T11:31:10.881Z,11.90
2019-04-16T11:32:10.878Z,11.70
2019-04-16T11:33:10.875Z,11.60
2019-04-16T11:34:10.872Z,11.30
2019-04-16T11:35:13.083Z,11.00
2019-04-16T11:36:19.456Z,11.20
2019-04-16T11:37:10.868Z,10.10
2019-04-16T11:38:11.131Z,10.20
2019-04-16T11:39:10.872Z,10.20
2019-04-16T11:40:10.866Z,10.80
2019-04-16T11:41:10.905Z,10.30
2019-04-16T11:42:10.907Z,11.40
2019-04-16T11:43:10.862Z,12.20
2019-04-16T11:44:15.539Z,11.10
2019-04-16T11:45:11.484Z,10.90
2019-04-16T11:46:10.883Z,10.50
2019-04-16T11:47:10.934Z,10.40
2019-04-16T11:48:11.188Z,10.50
2019-04-16T11:49:10.859Z,10.70
2019-04-16T11:50:10.858Z,9.70
2019-04-16T11:51:10.855Z,10.50
2019-04-16T11:52:11.118Z,10.40
2019-04-16T11:53:10.849Z,10.50
2019-04-16T11:54:11.844Z,10.10
2019-04-16T11:55:10.847Z,10.30
2019-04-16T11:56:10.892Z,9.50
2019-04-16T11:57:13.109Z,9.90
2019-04-16T11:58:10.846Z,9.40
2019-04-16T11:59:10.837Z,10.00
2019-04-16T12:00:11.054Z,10.30
2019-04-16T12:01:10.882Z,9.70
2019-04-16T12:02:10.875Z,10.50
2019-04-16T12:03:10.866Z,10.40
2019-04-16T12:04:14.891Z,10.20
2019-04-16T12:05:10.835Z,10.70
2019-04-16T12:06:10.883Z,9.90
2019-04-16T12:07:10.831Z,9.70
2019-04-16T12:08:10.862Z,11.10
2019-04-16T12:09:10.835Z,11.50
2019-04-16T12:10:10.835Z,11.20
2019-04-16T12:11:11.059Z,11.80
2019-04-16T12:12:10.871Z,11.10
2019-04-16T12:13:10.852Z,11.30
2019-04-16T12:14:10.841Z,10.80
2019-04-16T12:15:10.828Z,10.60
2019-04-16T12:16:10.848Z,10.40
2019-04-16T12:17:10.861Z,10.90
2019-04-16T12:18:10.827Z,10.50
2019-04-16T12:19:10.854Z,10.70
2019-04-16T12:20:10.908Z,10.40
2019-04-16T12:21:10.821Z,11.10
2019-04-16T12:22:10.818Z,10.70
2019-04-16T12:23:10.846Z,10.90
2019-04-16T12:24:10.839Z,10.80
2019-04-16T12:25:10.859Z,10.90
2019-04-16T12:26:10.818Z,11.20
2019-04-16T12:27:10.820Z,11.50
2019-04-16T12:28:12.602Z,11.10
2019-04-16T12:29:10.996Z,11.10
2019-04-16T12:30:10.934Z,11.00
2019-04-16T12:31:10.852Z,11.50
2019-04-16T12:32:10.807Z,11.70
2019-04-16T12:33:14.008Z,11.60
2019-04-16T12:34:10.798Z,10.90
2019-04-16T12:35:10.846Z,10.80
2019-04-16T12:36:14.126Z,11.20
2019-04-16T12:37:10.801Z,10.40
2019-04-16T12:38:13.235Z,11.20
2019-04-16T12:39:10.899Z,10.90
2019-04-16T12:40:10.810Z,10.50
2019-04-16T12:41:10.817Z,10.70
2019-04-16T12:42:10.835Z,10.60
2019-04-16T12:43:14.719Z,10.80
2019-04-16T12:44:10.809Z,11.10
2019-04-16T12:45:10.831Z,10.70
2019-04-16T12:46:10.800Z,11.70
2019-04-16T12:47:10.789Z,10.70
2019-04-16T12:48:10.789Z,10.70
2019-04-16T12:49:10.785Z,10.80
2019-04-16T12:50:10.812Z,10.90
2019-04-16T12:51:10.804Z,11.60
2019-04-16T12:52:15.622Z,10.70
2019-04-16T12:53:10.857Z,11.00
2019-04-16T12:54:10.778Z,11.00
2019-04-16T12:55:10.823Z,11.00
2019-04-16T12:56:10.777Z,11.40
2019-04-16T12:57:14.918Z,10.50
2019-04-16T12:58:10.767Z,10.20
2019-04-16T12:59:10.845Z,10.80
2019-04-16T13:00:10.765Z,11.00
2019-04-16T13:01:10.759Z,11.30
2019-04-16T13:02:13.373Z,11.40